Time;durP1;ratioP1;P1;durP2;ratioP2;P2;SDS_P1;SDS_P2;PMS_P1;PMS_P2;Temp;Humidity;BMP_temperature;BMP_pressure;BME280_temperature;BME280_humidity;BME280_pressure;Samples;Min_cycle;Max_cycle;Signal;HPM_P1;HPM_P2
2022/09/12 00:01:07;;;;;;;0.20;0.20;;;15.50;99.90;;;;;;4857121;29;20853;-77
2022/09/12 00:03:33;;;;;;;0.10;0.10;;;15.50;99.90;;;;;;4886337;29;20478;-77
2022/09/12 00:05:59;;;;;;;0.20;0.20;;;15.50;99.90;;;;;;4874707;29;20085;-77
2022/09/12 00:08:25;;;;;;;0.10;0.10;;;15.40;99.90;;;;;;4876163;29;20070;-77
2022/09/12 00:10:50;;;;;;;0.20;0.20;;;15.40;99.90;;;;;;4871949;29;20057;-77
2022/09/12 00:13:16;;;;;;;0.20;0.20;;;15.40;99.90;;;;;;4876989;29;20057;-77
2022/09/12 00:15:43;;;;;;;0.13;0.13;;;15.40;99.90;;;;;;4854458;29;20140;-77
2022/09/12 00:18:13;;;;;;;0.10;0.10;;;15.40;99.90;;;;;;4857923;29;20080;-76
2022/09/12 00:20:44;;;;;;;0.20;0.20;;;15.30;99.90;;;;;;4872927;29;20045;-77
2022/09/12 00:23:10;;;;;;;0.10;0.10;;;15.30;99.90;;;;;;4869858;29;20309;-77
2022/09/12 00:25:43;;;;;;;0.10;0.10;;;15.30;99.90;;;;;;4857764;29;20413;-77
2022/09/12 00:28:10;;;;;;;0.20;0.20;;;15.30;99.90;;;;;;4859824;29;20041;-77
2022/09/12 00:30:41;;;;;;;0.10;0.10;;;15.20;99.90;;;;;;4873792;29;20104;-77
2022/09/12 00:33:06;;;;;;;0.20;0.20;;;15.20;99.90;;;;;;4866415;29;20049;-77
2022/09/12 00:35:39;;;;;;;0.10;0.10;;;15.20;99.90;;;;;;4865560;29;20071;-77
2022/09/12 00:38:05;;;;;;;0.10;0.10;;;15.20;99.90;;;;;;4875977;29;20106;-77
2022/09/12 00:40:30;;;;;;;0.10;0.10;;;15.10;99.90;;;;;;4874988;29;20145;-76
2022/09/12 00:42:56;;;;;;;0.20;0.20;;;15.10;99.90;;;;;;4860336;29;20046;-77
2022/09/12 00:45:28;;;;;;;0.10;0.10;;;15.20;99.90;;;;;;4871546;29;20052;-77
2022/09/12 00:48:02;;;;;;;0.17;0.17;;;15.10;99.90;;;;;;4874965;29;20049;-77
2022/09/12 00:50:29;;;;;;;0.10;0.10;;;15.00;99.90;;;;;;4858812;29;20053;-77
2022/09/12 00:53:15;;;;;;;0.10;0.10;;;15.00;99.90;;;;;;4871750;29;20562;-77
2022/09/12 00:55:47;;;;;;;0.10;0.10;;;15.00;99.90;;;;;;4864769;29;20053;-77
2022/09/12 00:58:29;;;;;;;0.10;0.10;;;14.90;99.90;;;;;;4861769;29;20041;-77
2022/09/12 01:00:56;;;;;;;0.20;0.20;;;15.00;99.90;;;;;;4865133;29;20175;-77
2022/09/12 01:03:23;;;;;;;0.20;0.20;;;15.00;99.90;;;;;;4876813;29;20122;-77
2022/09/12 01:06:14;;;;;;;0.20;0.20;;;14.90;99.90;;;;;;4874589;29;20041;-77
2022/09/12 01:08:41;;;;;;;0.20;0.20;;;14.90;99.90;;;;;;4857522;29;20049;-78
2022/09/12 01:11:10;;;;;;;0.10;0.10;;;14.90;99.90;;;;;;4873486;29;20116;-78
2022/09/12 01:13:36;;;;;;;0.10;0.10;;;14.90;99.90;;;;;;4857718;29;20049;-77
2022/09/12 01:16:06;;;;;;;0.10;0.10;;;14.90;99.90;;;;;;4876803;29;20066;-77
2022/09/12 01:18:41;;;;;;;0.20;0.20;;;14.80;99.90;;;;;;4879399;29;20120;-77
2022/09/12 01:21:38;;;;;;;0.10;0.10;;;14.80;99.90;;;;;;4877274;29;20054;-78
2022/09/12 01:24:22;;;;;;;0.17;0.17;;;14.80;99.90;;;;;;4860830;29;20049;-77
2022/09/12 01:27:23;;;;;;;0.20;0.20;;;14.80;99.90;;;;;;4875117;29;20136;-77
2022/09/12 01:30:19;;;;;;;0.17;0.17;;;14.80;99.90;;;;;;4861762;29;20033;-78
2022/09/12 01:33:00;;;;;;;0.10;0.10;;;14.80;99.90;;;;;;4858842;29;20061;-78
2022/09/12 01:35:49;;;;;;;0.20;0.20;;;14.80;99.90;;;;;;4875098;29;20101;-78
2022/09/12 01:38:29;;;;;;;0.10;0.10;;;14.80;99.90;;;;;;4858225;29;20053;-77
2022/09/12 01:41:10;;;;;;;0.10;0.10;;;14.70;99.90;;;;;;4861269;29;20057;-77
2022/09/12 01:43:44;;;;;;;0.10;0.10;;;14.70;99.90;;;;;;4859153;29;20057;-78
2022/09/12 01:46:17;;;;;;;0.20;0.20;;;14.80;99.90;;;;;;4855792;29;20116;-78
2022/09/12 01:49:07;;;;;;;0.13;0.13;;;14.70;99.90;;;;;;4858194;29;20393;-77
2022/09/12 01:51:41;;;;;;;0.10;0.10;;;14.70;99.90;;;;;;4874555;29;20049;-79
2022/09/12 01:54:19;;;;;;;0.10;0.10;;;14.70;99.90;;;;;;4877276;29;20077;-77
2022/09/12 01:56:48;;;;;;;0.10;0.10;;;14.70;99.90;;;;;;4875146;29;20052;-77
2022/09/12 01:59:25;;;;;;;0.20;0.20;;;14.70;99.90;;;;;;4860152;29;20127;-78
2022/09/12 02:02:06;;;;;;;0.10;0.10;;;14.60;99.90;;;;;;4858583;29;20063;-78
2022/09/12 02:04:40;;;;;;;0.20;0.20;;;14.70;99.90;;;;;;4875196;29;20065;-78
2022/09/12 02:07:39;;;;;;;0.20;0.20;;;14.60;99.90;;;;;;4859546;29;20060;-78
2022/09/12 02:10:12;;;;;;;0.10;0.10;;;14.60;99.90;;;;;;4859379;29;20060;-77
2022/09/12 02:12:45;;;;;;;0.10;0.10;;;14.60;99.90;;;;;;4878149;29;20052;-78
2022/09/12 02:15:13;;;;;;;0.10;0.10;;;14.60;99.90;;;;;;4871790;29;20056;-78
2022/09/12 02:17:43;;;;;;;0.20;0.20;;;14.60;99.90;;;;;;4869713;29;20064;-77
2022/09/12 02:20:32;;;;;;;0.17;0.17;;;14.70;99.90;;;;;;4859084;29;20053;-77
2022/09/12 02:22:59;;;;;;;0.20;0.20;;;14.60;99.90;;;;;;4851660;29;20061;-77
2022/09/12 02:25:27;;;;;;;0.20;0.20;;;14.60;99.90;;;;;;4873727;29;20045;-78
2022/09/12 02:28:07;;;;;;;0.10;0.10;;;14.60;99.90;;;;;;4859568;29;20045;-77
2022/09/12 02:30:49;;;;;;;0.10;0.10;;;14.50;99.90;;;;;;4873313;29;20060;-78
2022/09/12 02:33:31;;;;;;;0.10;0.10;;;14.50;99.90;;;;;;4876600;29;20053;-78
2022/09/12 02:36:10;;;;;;;0.20;0.20;;;14.50;99.90;;;;;;4875847;29;20049;-78
2022/09/12 02:38:46;;;;;;;0.10;0.10;;;14.50;99.90;;;;;;4858970;29;20053;-77
2022/09/12 02:41:16;;;;;;;0.20;0.20;;;14.50;99.90;;;;;;4855085;29;20672;-77
2022/09/12 02:43:49;;;;;;;0.20;0.20;;;14.40;99.90;;;;;;4852850;29;20618;-78
2022/09/12 02:46:47;;;;;;;0.20;0.20;;;14.50;99.90;;;;;;4851704;29;20044;-78
2022/09/12 02:49:13;;;;;;;0.20;0.20;;;14.40;99.90;;;;;;4851310;29;20067;-77
2022/09/12 02:51:39;;;;;;;0.10;0.10;;;14.50;99.90;;;;;;4876584;29;20044;-77
2022/09/12 02:54:06;;;;;;;0.10;0.10;;;14.40;99.90;;;;;;4859444;29;20053;-77
2022/09/12 02:56:32;;;;;;;0.20;0.20;;;14.40;99.90;;;;;;4858921;29;20040;-77
2022/09/12 02:59:03;;;;;;;0.13;0.13;;;14.40;99.90;;;;;;4858569;29;20053;-77
2022/09/12 03:01:49;;;;;;;0.20;0.20;;;14.40;99.90;;;;;;4846413;29;20053;-78
2022/09/12 03:04:45;;;;;;;0.10;0.10;;;14.30;99.90;;;;;;4877488;29;20088;-78
2022/09/12 03:08:05;;;;;;;0.20;0.20;;;14.30;99.90;;;;;;4877919;29;20153;-77
2022/09/12 03:11:06;;;;;;;0.10;0.10;;;14.30;99.90;;;;;;4867398;29;20462;-77
2022/09/12 03:13:43;;;;;;;0.20;0.20;;;14.30;99.90;;;;;;4872846;29;20080;-78
2022/09/12 03:16:18;;;;;;;0.20;0.20;;;14.30;99.90;;;;;;4879956;29;20052;-77
2022/09/12 03:19:07;;;;;;;0.10;0.10;;;14.30;99.90;;;;;;4889432;29;20045;-78
2022/09/12 03:21:59;;;;;;;0.13;0.13;;;14.30;99.90;;;;;;4852448;29;20132;-78
2022/09/12 03:24:41;;;;;;;0.20;0.20;;;14.20;99.90;;;;;;4857670;29;20053;-78
2022/09/12 03:27:20;;;;;;;0.20;0.20;;;14.20;99.90;;;;;;4876100;29;20140;-78
2022/09/12 03:29:47;;;;;;;0.20;0.20;;;14.20;99.90;;;;;;4868930;29;20486;-77
2022/09/12 03:32:13;;;;;;;0.10;0.10;;;14.30;99.90;;;;;;4859029;29;20101;-77
2022/09/12 03:34:39;;;;;;;0.20;0.20;;;14.20;99.90;;;;;;4859359;29;20454;-78
2022/09/12 03:37:05;;;;;;;0.10;0.10;;;14.20;99.90;;;;;;4859283;29;20080;-78
2022/09/12 03:39:31;;;;;;;0.20;0.20;;;14.10;99.90;;;;;;4858388;29;20549;-77
2022/09/12 03:41:57;;;;;;;0.20;0.20;;;14.00;99.90;;;;;;4874311;29;20041;-77
2022/09/12 03:44:23;;;;;;;0.10;0.10;;;14.10;99.90;;;;;;4876232;29;20037;-78
2022/09/12 03:46:52;;;;;;;0.20;0.20;;;13.90;99.90;;;;;;4854737;29;20402;-79
2022/09/12 03:49:20;;;;;;;0.10;0.10;;;13.90;99.90;;;;;;4875422;29;20045;-78
2022/09/12 03:51:46;;;;;;;0.20;0.20;;;13.80;99.90;;;;;;4874485;29;20074;-78
2022/09/12 03:54:12;;;;;;;0.20;0.20;;;13.80;99.90;;;;;;4855214;29;20056;-78
2022/09/12 03:56:38;;;;;;;0.03;0.03;;;13.80;99.90;;;;;;4873813;29;20084;-78
2022/09/12 03:59:05;;;;;;;0.20;0.20;;;13.80;99.90;;;;;;4857341;29;20569;-78
2022/09/12 04:01:31;;;;;;;0.20;0.20;;;13.70;99.90;;;;;;4872563;29;20044;-78
2022/09/12 04:03:57;;;;;;;0.10;0.10;;;13.80;99.90;;;;;;4857717;29;20093;-78
2022/09/12 04:06:22;;;;;;;0.20;0.20;;;13.70;99.90;;;;;;4857828;29;20097;-78
2022/09/12 04:08:50;;;;;;;0.10;0.10;;;13.70;99.90;;;;;;4874810;29;20075;-78
2022/09/12 04:11:17;;;;;;;0.10;0.10;;;13.70;99.90;;;;;;4858153;29;20068;-78
2022/09/12 04:13:44;;;;;;;0.15;0.15;;;13.80;99.90;;;;;;4858562;29;20073;-78
2022/09/12 04:16:11;;;;;;;0.10;0.10;;;13.80;99.90;;;;;;4855665;29;20053;-78
2022/09/12 04:18:37;;;;;;;0.10;0.10;;;13.80;99.90;;;;;;4858752;29;20045;-78
2022/09/12 04:21:05;;;;;;;0.20;0.20;;;13.80;99.90;;;;;;4857176;29;20052;-78
2022/09/12 04:23:30;;;;;;;0.10;0.10;;;13.80;99.90;;;;;;4875608;29;20057;-77
2022/09/12 04:25:58;;;;;;;0.20;0.20;;;13.80;99.90;;;;;;4874874;29;20060;-77
2022/09/12 04:28:25;;;;;;;0.20;0.20;;;13.80;99.90;;;;;;4859102;29;20517;-79
2022/09/12 04:30:55;;;;;;;0.20;0.20;;;13.70;99.90;;;;;;4871184;29;20530;-78
2022/09/12 04:33:20;;;;;;;0.20;0.20;;;13.80;99.90;;;;;;4860404;29;20422;-78
2022/09/12 04:35:47;;;;;;;0.15;0.15;;;13.70;99.90;;;;;;4874268;29;20064;-78
2022/09/12 04:38:13;;;;;;;0.10;0.10;;;13.60;99.90;;;;;;4855314;29;20393;-78
2022/09/12 04:40:39;;;;;;;0.20;0.20;;;13.60;99.90;;;;;;4858406;29;20173;-78
2022/09/12 04:43:05;;;;;;;0.20;0.20;;;13.50;99.90;;;;;;4858580;29;20049;-79
2022/09/12 04:45:31;;;;;;;0.10;0.10;;;13.50;99.90;;;;;;4865935;29;20042;-78
2022/09/12 04:47:57;;;;;;;0.20;0.20;;;13.50;99.90;;;;;;4859519;29;20053;-78
2022/09/12 04:50:23;;;;;;;0.10;0.10;;;13.50;99.90;;;;;;4874131;29;20417;-78
2022/09/12 04:52:52;;;;;;;0.20;0.20;;;13.50;99.90;;;;;;4885105;29;20065;-77
2022/09/12 04:55:19;;;;;;;0.30;0.30;;;13.50;99.90;;;;;;4886753;29;20053;-78
2022/09/12 04:57:45;;;;;;;0.17;0.17;;;13.50;99.90;;;;;;4863442;29;20038;-77
2022/09/12 05:00:12;;;;;;;0.20;0.20;;;13.60;99.90;;;;;;4859732;29;20053;-78
2022/09/12 05:02:38;;;;;;;0.20;0.20;;;13.50;99.90;;;;;;4876447;29;20056;-78
2022/09/12 05:05:04;;;;;;;0.57;0.20;;;13.50;99.90;;;;;;4877700;29;20538;-79
2022/09/12 05:07:30;;;;;;;0.20;0.20;;;13.50;99.90;;;;;;4880627;29;20045;-78
2022/09/12 05:09:55;;;;;;;0.10;0.10;;;13.50;99.90;;;;;;4873589;29;20661;-79
2022/09/12 05:12:21;;;;;;;0.10;0.10;;;13.50;99.90;;;;;;4871505;29;20076;-78
2022/09/12 05:14:46;;;;;;;0.17;0.17;;;13.40;99.90;;;;;;4893088;29;20044;-78
2022/09/12 05:17:12;;;;;;;0.20;0.20;;;13.60;99.90;;;;;;4879477;29;20049;-78
2022/09/12 05:19:38;;;;;;;0.10;0.10;;;13.60;99.90;;;;;;4873794;29;20464;-79
2022/09/12 05:22:05;;;;;;;0.20;0.20;;;13.50;99.90;;;;;;4872719;29;20140;-78
2022/09/12 05:24:31;;;;;;;0.10;0.10;;;13.60;99.90;;;;;;4876602;29;20531;-79
2022/09/12 05:27:09;;;;;;;0.10;0.10;;;13.70;99.90;;;;;;4848203;29;20139;-78
2022/09/12 05:29:34;;;;;;;0.10;0.10;;;13.60;99.90;;;;;;4864792;29;20049;-78
2022/09/12 05:32:02;;;;;;;0.20;0.20;;;13.60;99.90;;;;;;4873446;29;20489;-78
2022/09/12 05:34:28;;;;;;;0.20;0.20;;;13.60;99.90;;;;;;4860315;29;20053;-77
2022/09/12 05:36:53;;;;;;;0.20;0.20;;;13.70;99.90;;;;;;4861456;29;20048;-78
2022/09/12 05:39:19;;;;;;;0.20;0.20;;;13.70;99.90;;;;;;4877536;29;20098;-77
2022/09/12 05:41:45;;;;;;;0.10;0.10;;;13.70;99.90;;;;;;4877075;29;20132;-77
2022/09/12 05:44:12;;;;;;;0.10;0.10;;;13.70;99.90;;;;;;4877571;29;20047;-78
2022/09/12 05:46:40;;;;;;;0.10;0.10;;;13.80;99.90;;;;;;4873467;29;20041;-78
2022/09/12 05:49:11;;;;;;;0.20;0.20;;;13.80;99.90;;;;;;4856073;29;20215;-75
2022/09/12 05:51:40;;;;;;;0.20;0.20;;;13.80;99.90;;;;;;4877230;29;20052;-79
2022/09/12 05:54:08;;;;;;;0.15;0.15;;;13.80;99.90;;;;;;4877863;29;20064;-78
2022/09/12 05:56:38;;;;;;;0.20;0.20;;;13.80;99.90;;;;;;4856957;29;20053;-79
2022/09/12 05:59:11;;;;;;;0.10;0.10;;;13.80;99.90;;;;;;4873215;29;20499;-78
2022/09/12 06:01:37;;;;;;;0.15;0.15;;;13.80;99.90;;;;;;4875913;29;20052;-78
2022/09/12 06:04:05;;;;;;;0.10;0.10;;;13.90;99.90;;;;;;4876318;29;20049;-78
2022/09/12 06:06:34;;;;;;;0.10;0.10;;;13.90;99.90;;;;;;4878541;29;20036;-77
2022/09/12 06:09:02;;;;;;;0.10;0.10;;;14.00;99.90;;;;;;4857153;29;20050;-78
2022/09/12 06:11:30;;;;;;;0.10;0.10;;;14.10;99.90;;;;;;4878067;29;20049;-78
2022/09/12 06:13:57;;;;;;;0.20;0.20;;;14.00;99.90;;;;;;4879935;29;20489;-78
2022/09/12 06:16:28;;;;;;;0.20;0.20;;;14.10;99.90;;;;;;4875790;29;20628;-78
2022/09/12 06:19:01;;;;;;;0.20;0.20;;;14.10;99.90;;;;;;4876768;29;20041;-78
2022/09/12 06:21:30;;;;;;;0.10;0.10;;;14.20;99.90;;;;;;4876482;29;20393;-78
2022/09/12 06:23:57;;;;;;;0.20;0.20;;;14.20;99.90;;;;;;4861123;29;20560;-78
2022/09/12 06:26:24;;;;;;;0.20;0.20;;;14.30;99.90;;;;;;4861638;29;20193;-78
2022/09/12 06:28:54;;;;;;;0.10;0.10;;;14.30;99.90;;;;;;4860829;29;20572;-78
2022/09/12 06:31:28;;;;;;;0.10;0.10;;;14.30;99.90;;;;;;4875205;29;20178;-78
2022/09/12 06:33:55;;;;;;;0.10;0.10;;;14.40;99.90;;;;;;4877091;29;20060;-78
2022/09/12 06:36:32;;;;;;;0.20;0.20;;;14.40;99.90;;;;;;4859785;29;20065;-78
2022/09/12 06:39:06;;;;;;;0.10;0.10;;;14.40;99.90;;;;;;4873647;29;20645;-78
2022/09/12 06:41:32;;;;;;;0.20;0.20;;;14.40;99.90;;;;;;4858453;29;20457;-78
2022/09/12 06:43:59;;;;;;;0.10;0.10;;;14.50;99.90;;;;;;4878203;29;20040;-79
2022/09/12 06:46:26;;;;;;;0.10;0.10;;;14.50;99.90;;;;;;4876406;29;20045;-78
2022/09/12 06:48:54;;;;;;;0.20;0.20;;;14.50;99.90;;;;;;4876698;29;20041;-78
2022/09/12 06:51:20;;;;;;;0.20;0.20;;;14.60;99.90;;;;;;4876441;29;20044;-79
2022/09/12 06:53:47;;;;;;;0.20;0.20;;;14.60;99.90;;;;;;4859910;29;20513;-78
2022/09/12 06:56:18;;;;;;;0.10;0.10;;;14.60;99.90;;;;;;4861186;29;20045;-80
2022/09/12 06:58:44;;;;;;;0.10;0.10;;;14.60;99.90;;;;;;4876728;29;20048;-79
2022/09/12 07:01:14;;;;;;;0.10;0.10;;;14.60;99.90;;;;;;4879230;29;20809;-79
2022/09/12 07:03:41;;;;;;;0.10;0.10;;;14.60;99.90;;;;;;4877962;29;20040;-79
2022/09/12 07:06:12;;;;;;;0.10;0.10;;;14.70;99.90;;;;;;4878006;29;20053;-80
2022/09/12 07:08:41;;;;;;;;;;;14.70;99.90;;;;;;4866705;29;20101;-80
2022/09/12 07:11:21;;;;;;;0.10;0.10;;;14.80;99.90;;;;;;4867607;29;19932;-79
2022/09/12 07:13:53;;;;;;;0.20;0.20;;;14.90;99.90;;;;;;4874924;29;20056;-79
2022/09/12 07:16:19;;;;;;;0.10;0.10;;;14.90;99.90;;;;;;4858297;29;20065;-80
2022/09/12 07:18:49;;;;;;;0.17;0.17;;;15.10;99.90;;;;;;4876778;29;20049;-81
2022/09/12 07:21:15;;;;;;;0.20;0.20;;;15.10;99.90;;;;;;4873910;29;20107;-80
2022/09/12 07:23:44;;;;;;;0.17;0.17;;;15.10;99.90;;;;;;4874726;29;20486;-79
2022/09/12 07:26:13;;;;;;;0.20;0.20;;;15.10;99.90;;;;;;4853833;29;20055;-79
2022/09/12 07:28:39;;;;;;;0.10;0.10;;;15.20;99.90;;;;;;4875102;29;20076;-80
2022/09/12 07:31:15;;;;;;;0.10;0.10;;;15.20;99.90;;;;;;4857828;29;20116;-80
2022/09/12 07:33:41;;;;;;;0.20;0.20;;;15.30;99.90;;;;;;4875030;29;20116;-80
2022/09/12 07:36:11;;;;;;;0.20;0.20;;;15.30;99.90;;;;;;4875324;29;20053;-80
2022/09/12 07:38:40;;;;;;;0.10;0.10;;;15.40;99.90;;;;;;4874083;29;20041;-79
2022/09/12 07:41:20;;;;;;;0.20;0.20;;;15.50;99.90;;;;;;4875936;29;20136;-80
2022/09/12 07:43:46;;;;;;;0.10;0.10;;;15.60;99.90;;;;;;4877193;29;20113;-79
2022/09/12 07:46:13;;;;;;;0.20;0.20;;;15.60;99.90;;;;;;4875513;29;20049;-79
2022/09/12 07:48:39;;;;;;;0.10;0.10;;;15.70;99.90;;;;;;4860674;29;20049;-79
2022/09/12 07:51:16;;;;;;;0.20;0.20;;;15.70;99.90;;;;;;4859193;29;20052;-80
2022/09/12 07:53:45;;;;;;;0.10;0.10;;;15.80;99.90;;;;;;4875137;29;20047;-80
2022/09/12 07:56:12;;;;;;;0.20;0.20;;;15.80;99.90;;;;;;4854833;29;20577;-80
2022/09/12 07:58:39;;;;;;;0.20;0.20;;;15.80;99.90;;;;;;4875135;29;20064;-77
2022/09/12 08:01:11;;;;;;;0.20;0.20;;;15.80;99.90;;;;;;4874688;29;20044;-77
2022/09/12 08:03:37;;;;;;;0.10;0.10;;;15.90;99.90;;;;;;4873646;29;20120;-77
2022/09/12 08:06:06;;;;;;;0.10;0.10;;;16.00;99.90;;;;;;4874440;29;20041;-78
2022/09/12 08:08:33;;;;;;;0.17;0.17;;;16.00;99.90;;;;;;4858795;29;20060;-77
2022/09/12 08:11:10;;;;;;;0.10;0.10;;;16.10;99.90;;;;;;4859233;29;20566;-78
2022/09/12 08:13:40;;;;;;;0.10;0.10;;;16.10;99.90;;;;;;4858176;29;20052;-80
2022/09/12 08:16:10;;;;;;;0.13;0.13;;;16.20;99.90;;;;;;4857161;29;20045;-78
2022/09/12 08:18:36;;;;;;;0.10;0.10;;;16.30;99.90;;;;;;4874083;29;20041;-78
2022/09/12 08:21:10;;;;;;;0.20;0.20;;;16.30;99.90;;;;;;4874356;29;20052;-79
2022/09/12 08:23:36;;;;;;;0.20;0.20;;;16.30;99.90;;;;;;4856958;29;20060;-78
2022/09/12 08:26:05;;;;;;;0.10;0.10;;;16.30;99.90;;;;;;4861548;29;20044;-76
2022/09/12 08:28:33;;;;;;;0.30;0.30;;;16.50;99.90;;;;;;4865030;29;20067;-78
2022/09/12 08:31:02;;;;;;;0.20;0.20;;;16.50;99.90;;;;;;4877411;29;20134;-79
2022/09/12 08:33:34;;;;;;;0.10;0.10;;;16.50;99.90;;;;;;4862990;29;20057;-78
2022/09/12 08:36:10;;;;;;;0.20;0.20;;;16.60;99.90;;;;;;4862324;29;20041;-79
2022/09/12 08:38:37;;;;;;;0.20;0.20;;;16.70;99.90;;;;;;4878212;29;20057;-77
2022/09/12 08:41:12;;;;;;;0.10;0.10;;;16.70;99.90;;;;;;4879004;29;20521;-78
2022/09/12 08:44:14;;;;;;;0.10;0.10;;;16.80;99.90;;;;;;4863020;29;20149;-77
2022/09/12 08:47:02;;;;;;;0.20;0.20;;;16.80;99.90;;;;;;4862906;29;20077;-77
2022/09/12 08:49:29;;;;;;;0.10;0.10;;;16.90;99.90;;;;;;4883720;29;20056;-78
2022/09/12 08:51:58;;;;;;;0.20;0.20;;;17.10;99.90;;;;;;4879437;29;20136;-78
2022/09/12 08:54:27;;;;;;;0.20;0.20;;;17.10;99.90;;;;;;4876483;29;20041;-78
2022/09/12 08:57:00;;;;;;;0.13;0.13;;;17.20;99.90;;;;;;4857508;29;20075;-79
2022/09/12 08:59:26;;;;;;;0.10;0.10;;;17.20;99.90;;;;;;4873828;29;20128;-78
2022/09/12 09:01:57;;;;;;;0.10;0.10;;;17.30;99.90;;;;;;4858233;29;20113;-77
2022/09/12 09:04:41;;;;;;;0.20;0.20;;;17.30;99.90;;;;;;4881410;29;20051;-78
2022/09/12 09:07:31;;;;;;;0.20;0.20;;;17.40;99.90;;;;;;4858025;29;20145;-77
2022/09/12 09:10:06;;;;;;;0.10;0.10;;;17.50;99.90;;;;;;4875352;29;20049;-77
2022/09/12 09:12:46;;;;;;;0.10;0.10;;;17.60;99.90;;;;;;4877947;29;20528;-78
2022/09/12 09:15:33;;;;;;;0.17;0.17;;;17.60;99.90;;;;;;4855680;29;20045;-77
2022/09/12 09:18:27;;;;;;;0.20;0.20;;;17.70;99.90;;;;;;4862975;29;20515;-78
2022/09/12 09:21:00;;;;;;;0.20;0.20;;;17.70;99.90;;;;;;4875178;29;20417;-78
2022/09/12 09:23:40;;;;;;;0.10;0.10;;;17.80;99.90;;;;;;4862040;29;20045;-77
2022/09/12 09:26:25;;;;;;;0.10;0.10;;;17.90;99.90;;;;;;4877893;29;20049;-78
2022/09/12 09:29:03;;;;;;;0.13;0.13;;;18.10;99.90;;;;;;4877559;29;20520;-78
2022/09/12 09:31:38;;;;;;;0.10;0.10;;;17.90;99.90;;;;;;4872923;29;20056;-79
2022/09/12 09:34:17;;;;;;;0.17;0.17;;;17.90;99.90;;;;;;4854819;29;20060;-78
2022/09/12 09:37:05;;;;;;;0.20;0.20;;;18.00;99.90;;;;;;4855659;29;20082;-79
2022/09/12 09:39:52;;;;;;;0.20;0.20;;;18.00;99.90;;;;;;4858196;29;20137;-77
2022/09/12 09:42:37;;;;;;;0.10;0.10;;;18.10;99.90;;;;;;4875694;29;20053;-77
2022/09/12 09:45:14;;;;;;;0.13;0.13;;;18.10;99.90;;;;;;4860278;29;20821;-77
2022/09/12 09:47:40;;;;;;;0.20;0.20;;;18.20;99.90;;;;;;4877813;29;20108;-77
2022/09/12 09:50:05;;;;;;;0.20;0.20;;;18.20;99.90;;;;;;4878460;29;20147;-77
2022/09/12 09:52:31;;;;;;;0.20;0.20;;;18.30;99.90;;;;;;4877526;29;20045;-77
2022/09/12 09:55:00;;;;;;;0.20;0.20;;;18.40;99.90;;;;;;4875912;29;20171;-78
2022/09/12 09:57:35;;;;;;;0.17;0.17;;;18.50;99.90;;;;;;4861761;29;20061;-78
2022/09/12 10:00:33;;;;;;;0.20;0.20;;;18.60;99.90;;;;;;4859341;29;20052;-78
2022/09/12 10:03:03;;;;;;;0.20;0.20;;;18.70;99.90;;;;;;4876386;29;20068;-79
2022/09/12 10:05:32;;;;;;;0.20;0.20;;;18.80;99.90;;;;;;4876339;29;20465;-78
2022/09/12 10:07:57;;;;;;;0.20;0.20;;;18.90;99.90;;;;;;4878283;29;20462;-79
2022/09/12 10:10:24;;;;;;;0.10;0.10;;;19.00;99.90;;;;;;4858015;29;20049;-78
2022/09/12 10:13:07;;;;;;;0.20;0.20;;;19.10;99.90;;;;;;4877140;29;20128;-78
2022/09/12 10:15:33;;;;;;;0.20;0.20;;;19.10;99.90;;;;;;4856230;29;20079;-79
2022/09/12 10:18:00;;;;;;;0.10;0.10;;;19.10;99.90;;;;;;4871097;29;20064;-78
2022/09/12 10:20:42;;;;;;;0.15;0.15;;;19.40;99.90;;;;;;4859921;29;20155;-79
2022/09/12 10:23:31;;;;;;;0.20;0.20;;;19.50;99.90;;;;;;4877819;29;20041;-79
2022/09/12 10:26:00;;;;;;;0.10;0.10;;;19.70;99.90;;;;;;4874627;29;20092;-78
2022/09/12 10:28:38;;;;;;;0.20;0.20;;;19.80;99.90;;;;;;4876792;29;20532;-79
2022/09/12 10:31:07;;;;;;;0.10;0.10;;;19.90;99.90;;;;;;4874831;29;20490;-78
2022/09/12 10:33:41;;;;;;;0.20;0.20;;;20.00;99.90;;;;;;4876552;29;20245;-79
2022/09/12 10:36:06;;;;;;;0.10;0.10;;;20.00;99.90;;;;;;4878045;29;20076;-77
2022/09/12 10:38:33;;;;;;;0.20;0.20;;;20.20;99.90;;;;;;4871349;29;20065;-77
2022/09/12 10:41:08;;;;;;;0.20;0.20;;;20.30;99.90;;;;;;4872316;29;20053;-78
2022/09/12 10:43:36;;;;;;;0.20;0.20;;;20.40;99.90;;;;;;4855909;29;20061;-77
2022/09/12 10:46:14;;;;;;;0.20;0.20;;;20.50;99.90;;;;;;4850434;29;20068;-78
2022/09/12 10:48:44;;;;;;;0.20;0.20;;;20.60;99.90;;;;;;4873160;29;20124;-78
2022/09/12 10:51:27;;;;;;;0.20;0.20;;;20.70;99.90;;;;;;4872744;29;20120;-77
2022/09/12 10:54:02;;;;;;;0.20;0.20;;;20.80;99.90;;;;;;4848642;29;20049;-78
2022/09/12 10:56:50;;;;;;;0.20;0.20;;;20.90;99.90;;;;;;4875826;29;20037;-78
2022/09/12 10:59:37;;;;;;;0.20;0.20;;;21.00;99.90;;;;;;4873288;29;20406;-78
2022/09/12 11:02:28;;;;;;;0.20;0.20;;;21.00;99.90;;;;;;4878202;29;20083;-78
2022/09/12 11:05:16;;;;;;;0.20;0.20;;;21.10;99.90;;;;;;4869614;29;20401;-80
2022/09/12 11:08:01;;;;;;;0.10;0.10;;;21.20;99.90;;;;;;4868825;29;20049;-82
2022/09/12 11:10:35;;;;;;;0.20;0.20;;;21.20;99.90;;;;;;4857595;29;20048;-78
2022/09/12 11:13:16;;;;;;;0.20;0.20;;;21.30;99.90;;;;;;4855191;29;20057;-79
2022/09/12 11:15:58;;;;;;;0.20;0.20;;;21.40;99.90;;;;;;4874745;29;20052;-78
2022/09/12 11:18:48;;;;;;;0.10;0.10;;;21.50;99.90;;;;;;4875016;29;20044;-79
2022/09/12 11:21:23;;;;;;;0.20;0.20;;;21.60;99.90;;;;;;4876660;29;20041;-79
2022/09/12 11:24:30;;;;;;;0.20;0.20;;;21.60;99.90;;;;;;4876660;29;20045;-79
2022/09/12 11:27:10;;;;;;;0.20;0.20;;;21.70;99.90;;;;;;4821618;29;20058;-79
2022/09/12 11:29:49;;;;;;;0.20;0.20;;;21.80;99.90;;;;;;4814205;29;20046;-77
2022/09/12 11:32:18;;;;;;;0.20;0.20;;;21.90;99.90;;;;;;4838684;29;20506;-78
2022/09/12 11:35:06;;;;;;;0.20;0.20;;;22.10;99.90;;;;;;4853429;29;20053;-79
2022/09/12 11:37:50;;;;;;;0.15;0.15;;;22.20;99.90;;;;;;4874180;29;20402;-79
2022/09/12 11:40:27;;;;;;;0.15;0.15;;;22.20;99.90;;;;;;4872769;29;20057;-78
2022/09/12 11:42:59;;;;;;;0.20;0.20;;;22.30;99.90;;;;;;4858358;29;20044;-78
2022/09/12 11:45:42;;;;;;;0.20;0.20;;;22.50;99.90;;;;;;4849136;29;20192;-78
2022/09/12 11:48:19;;;;;;;0.20;0.20;;;22.70;99.90;;;;;;4863668;29;20049;-78
2022/09/12 11:50:45;;;;;;;0.20;0.20;;;22.80;99.90;;;;;;4877510;29;20048;-78
2022/09/12 11:53:17;;;;;;;0.20;0.20;;;23.00;99.90;;;;;;4876876;29;20092;-78
2022/09/12 11:56:15;;;;;;;0.20;0.20;;;23.20;99.90;;;;;;4859347;29;20077;-76
2022/09/12 11:58:42;;;;;;;0.20;0.20;;;23.30;99.90;;;;;;4869647;29;20064;-77
2022/09/12 12:01:14;;;;;;;0.20;0.20;;;23.40;99.90;;;;;;4863175;29;20053;-78
2022/09/12 12:03:42;;;;;;;0.20;0.20;;;23.50;99.90;;;;;;4876033;29;20049;-78
2022/09/12 12:06:36;;;;;;;0.20;0.20;;;23.60;99.90;;;;;;4857013;29;20060;-77
2022/09/12 12:09:03;;;;;;;0.20;0.20;;;23.70;99.90;;;;;;4872106;29;20155;-76
2022/09/12 12:11:32;;;;;;;0.20;0.20;;;23.70;99.90;;;;;;4853895;29;20119;-78
2022/09/12 12:14:00;;;;;;;0.28;0.28;;;23.70;99.90;;;;;;4874703;29;20045;-77
2022/09/12 12:16:29;;;;;;;0.30;0.30;;;23.70;99.90;;;;;;4858817;29;20092;-77
2022/09/12 12:19:00;;;;;;;0.20;0.20;;;23.60;99.90;;;;;;4862417;29;20049;-79
2022/09/12 12:21:38;;;;;;;0.20;0.20;;;23.60;99.90;;;;;;4876319;29;20076;-78
2022/09/12 12:24:07;;;;;;;0.20;0.20;;;23.40;99.90;;;;;;4875027;29;20470;-77
2022/09/12 12:26:39;;;;;;;0.20;0.20;;;23.30;99.90;;;;;;4876397;29;20045;-78
2022/09/12 12:29:12;;;;;;;0.20;0.20;;;23.20;99.90;;;;;;4859518;29;20387;-78
2022/09/12 12:32:02;;;;;;;0.10;0.10;;;23.40;99.90;;;;;;4856986;29;20084;-79
2022/09/12 12:34:34;;;;;;;0.20;0.20;;;23.60;99.90;;;;;;4859371;29;20702;-78
2022/09/12 12:37:20;;;;;;;0.20;0.20;;;23.80;99.90;;;;;;4876363;29;20045;-78
2022/09/12 12:39:49;;;;;;;0.20;0.20;;;23.90;99.90;;;;;;4853811;29;20139;-77
2022/09/12 12:42:33;;;;;;;0.20;0.20;;;24.00;99.90;;;;;;4870842;29;20461;-77
2022/09/12 12:45:08;;;;;;;0.20;0.20;;;24.00;99.90;;;;;;4858272;29;20068;-77
2022/09/12 12:47:37;;;;;;;0.20;0.20;;;24.00;99.90;;;;;;4860848;29;20060;-77
2022/09/12 12:50:22;;;;;;;0.20;0.20;;;24.00;99.90;;;;;;4856798;29;20057;-77
2022/09/12 12:52:53;;;;;;;0.20;0.20;;;24.10;99.90;;;;;;4860268;29;20061;-77
2022/09/12 12:55:32;;;;;;;0.20;0.20;;;24.20;99.90;;;;;;4877562;29;20101;-76
2022/09/12 12:58:00;;;;;;;0.20;0.20;;;24.20;99.90;;;;;;4875422;29;20061;-78
2022/09/12 13:00:36;;;;;;;0.20;0.20;;;24.20;99.90;;;;;;4856592;29;20792;-78
2022/09/12 13:03:05;;;;;;;0.20;0.20;;;24.20;99.90;;;;;;4854794;29;20065;-77
2022/09/12 13:05:47;;;;;;;0.20;0.20;;;24.20;99.60;;;;;;4869626;29;20049;-75
2022/09/12 13:08:15;;;;;;;0.20;0.20;;;24.20;99.50;;;;;;4859262;29;20045;-76
2022/09/12 13:10:58;;;;;;;0.20;0.20;;;24.20;99.90;;;;;;4870165;29;20069;-77
2022/09/12 13:14:16;;;;;;;0.30;0.25;;;24.30;99.90;;;;;;4868040;29;20109;-77
2022/09/12 13:16:58;;;;;;;0.20;0.20;;;24.30;98.70;;;;;;4851300;29;20474;-77
2022/09/12 13:19:30;;;;;;;0.20;0.20;;;24.30;98.90;;;;;;4832150;29;20596;-78